createdAt,value
2023-07-31T00:02:20.086Z,99668.60
2023-07-31T00:07:29.750Z,99660.20
2023-07-31T00:12:40.624Z,99662.20
2023-07-31T00:17:50.283Z,99652.40
2023-07-31T00:22:59.896Z,99656.60
2023-07-31T00:28:10.207Z,99660.60
2023-07-31T00:33:19.712Z,99661.80
2023-07-31T00:38:29.252Z,99665.60
2023-07-31T00:43:38.768Z,99668.40
2023-07-31T00:48:49.155Z,99669.20
2023-07-31T00:54:00.172Z,99669.00
2023-07-31T00:59:10.043Z,99659.00
2023-07-31T01:04:20.461Z,99657.40
2023-07-31T01:09:43.036Z,99679.40
2023-07-31T01:15:12.506Z,99675.20
2023-07-31T01:20:26.325Z,99677.60
2023-07-31T01:26:07.884Z,99674.40
2023-07-31T01:31:22.869Z,99681.80
2023-07-31T01:36:33.578Z,99682.60
2023-07-31T01:41:43.079Z,99668.60
2023-07-31T01:46:52.761Z,99663.40
2023-07-31T01:52:02.356Z,99659.20
2023-07-31T01:57:12.680Z,99656.40
2023-07-31T02:02:22.315Z,99665.20
2023-07-31T02:07:31.937Z,99660.00
2023-07-31T02:12:41.459Z,99662.40
2023-07-31T02:17:51.103Z,99663.20
2023-07-31T02:23:00.908Z,99665.40
2023-07-31T02:28:10.685Z,99671.60
2023-07-31T02:33:21.317Z,99666.80
2023-07-31T02:38:31.312Z,99666.40
2023-07-31T02:43:41.101Z,99658.00
2023-07-31T02:48:50.651Z,99655.20
2023-07-31T02:54:00.271Z,99668.00
2023-07-31T02:59:09.885Z,99660.20
2023-07-31T03:04:19.822Z,99678.20
2023-07-31T03:09:29.566Z,99663.00
2023-07-31T03:14:39.112Z,99661.40
2023-07-31T03:19:48.757Z,99664.40
2023-07-31T03:24:58.873Z,99670.00
2023-07-31T03:30:10.166Z,99683.60
2023-07-31T03:35:20.558Z,99690.00
2023-07-31T03:40:30.523Z,99691.60
2023-07-31T03:45:40.151Z,99692.00
2023-07-31T03:50:49.771Z,99692.60
2023-07-31T03:55:59.352Z,99687.20
2023-07-31T04:01:09.444Z,99691.20
2023-07-31T04:06:19.527Z,99699.20
2023-07-31T04:11:29.125Z,99709.20
2023-07-31T04:16:39.088Z,99707.20
2023-07-31T04:21:48.913Z,99716.60
2023-07-31T04:26:58.673Z,99713.80
2023-07-31T04:32:09.422Z,99715.60
2023-07-31T04:37:19.312Z,99730.40
2023-07-31T04:42:28.865Z,99736.20
2023-07-31T04:47:38.451Z,99745.20
2023-07-31T04:52:47.966Z,99750.40
2023-07-31T04:57:57.666Z,99745.20
2023-07-31T05:03:08.366Z,99749.60
2023-07-31T05:08:18.945Z,99757.20
2023-07-31T05:13:29.091Z,99757.20
2023-07-31T05:18:38.735Z,99764.60
2023-07-31T05:23:49.195Z,99770.00
2023-07-31T05:28:59.710Z,99773.20
2023-07-31T05:34:09.391Z,99765.20
2023-07-31T05:39:20.922Z,99769.20
2023-07-31T05:44:30.691Z,99768.60
2023-07-31T05:49:40.536Z,99772.00
2023-07-31T05:54:50.406Z,99770.20
2023-07-31T06:00:00.069Z,99775.00
2023-07-31T06:05:11.559Z,99777.80
2023-07-31T06:10:22.728Z,99783.20
2023-07-31T06:15:33.164Z,99787.00
2023-07-31T06:20:43.608Z,99785.80
2023-07-31T06:25:53.585Z,99793.20
2023-07-31T06:31:03.902Z,99783.20
2023-07-31T06:36:13.862Z,99789.40
2023-07-31T06:41:23.412Z,99797.60
2023-07-31T06:46:33.366Z,99791.40
2023-07-31T06:51:42.924Z,99795.80
2023-07-31T06:56:54.167Z,99785.00
2023-07-31T07:02:06.630Z,99788.80
2023-07-31T07:07:19.149Z,99779.20
2023-07-31T07:12:29.969Z,99774.40
2023-07-31T07:17:40.066Z,99782.80
2023-07-31T07:22:49.918Z,99779.60
2023-07-31T07:27:59.782Z,99792.00
2023-07-31T07:33:09.667Z,99789.40
2023-07-31T07:38:20.642Z,99793.40
2023-07-31T07:43:30.286Z,99792.80
2023-07-31T07:48:39.911Z,99793.80
2023-07-31T07:53:50.162Z,99800.40
2023-07-31T07:59:00.216Z,99801.20
2023-07-31T08:04:10.123Z,99794.00
2023-07-31T08:09:20.022Z,99792.00
2023-07-31T08:14:32.044Z,99787.60
2023-07-31T08:19:43.487Z,99806.00
2023-07-31T08:24:53.330Z,99798.40
2023-07-31T08:30:03.053Z,99809.80
2023-07-31T08:35:13.148Z,99785.00
2023-07-31T08:40:23.891Z,99801.40
2023-07-31T08:45:34.886Z,99789.00
2023-07-31T08:50:44.816Z,99783.40
2023-07-31T08:55:57.367Z,99794.80
2023-07-31T09:01:09.816Z,99786.20
2023-07-31T09:06:21.294Z,99792.40
2023-07-31T09:11:31.692Z,99786.40
2023-07-31T09:16:56.369Z,99787.20
2023-07-31T09:22:06.315Z,99783.00
2023-07-31T09:27:16.017Z,99794.40
2023-07-31T09:32:29.436Z,99792.60
2023-07-31T09:37:39.558Z,99790.80
2023-07-31T09:42:51.555Z,99789.40
2023-07-31T09:48:01.552Z,99776.80
2023-07-31T09:53:12.560Z,99776.00
2023-07-31T09:58:26.208Z,99775.00
2023-07-31T10:03:38.075Z,99789.60
2023-07-31T10:08:54.430Z,99789.80
2023-07-31T10:14:04.382Z,99778.20
2023-07-31T10:19:16.902Z,99778.40
2023-07-31T10:24:28.409Z,99773.40
2023-07-31T10:29:39.653Z,99771.20
2023-07-31T10:34:50.485Z,99766.60
2023-07-31T10:40:09.128Z,99773.60
2023-07-31T10:45:28.826Z,99766.40
2023-07-31T10:50:49.964Z,99767.20
2023-07-31T10:56:04.703Z,99762.60
2023-07-31T11:01:14.391Z,99756.20
2023-07-31T11:06:24.107Z,99753.60
2023-07-31T11:11:35.820Z,99752.60
2023-07-31T11:16:47.798Z,99758.80
2023-07-31T11:21:58.992Z,99751.60
2023-07-31T11:27:13.940Z,99755.60
2023-07-31T11:32:25.958Z,99769.40
2023-07-31T11:37:47.264Z,99759.60
2023-07-31T11:42:57.305Z,99750.00
2023-07-31T11:48:07.800Z,99755.00
2023-07-31T11:53:19.664Z,99749.00
2023-07-31T11:58:31.626Z,99739.60
2023-07-31T12:03:44.080Z,99721.00
2023-07-31T12:08:54.258Z,99731.40
2023-07-31T12:14:07.200Z,99735.80
2023-07-31T12:19:16.793Z,99722.40
2023-07-31T12:24:28.478Z,99733.80
2023-07-31T12:29:43.142Z,99728.80
2023-07-31T12:34:53.221Z,99727.20
2023-07-31T12:40:09.118Z,99726.60
2023-07-31T12:45:19.107Z,99724.60
2023-07-31T12:50:29.005Z,99723.40
2023-07-31T12:55:39.097Z,99721.40
2023-07-31T13:00:48.976Z,99726.60
2023-07-31T13:05:58.947Z,99729.40
2023-07-31T13:11:08.529Z,99773.80
2023-07-31T13:16:18.045Z,99777.80
2023-07-31T13:21:29.092Z,99783.60
2023-07-31T13:26:39.159Z,99783.20
2023-07-31T13:31:49.020Z,99775.40
2023-07-31T13:37:00.434Z,99766.00
2023-07-31T13:42:13.659Z,99746.60
2023-07-31T13:47:23.402Z,99732.40
2023-07-31T13:52:33.156Z,99725.60
2023-07-31T13:57:43.600Z,99723.20
2023-07-31T14:02:53.341Z,99720.00
2023-07-31T14:08:03.550Z,99700.60
2023-07-31T14:13:13.198Z,99700.80
2023-07-31T14:18:24.039Z,99704.60
2023-07-31T14:23:34.212Z,99700.60
2023-07-31T14:28:43.893Z,99696.00
2023-07-31T14:33:54.435Z,99682.20
2023-07-31T14:39:05.844Z,99689.00
2023-07-31T14:44:15.884Z,99677.40
2023-07-31T14:49:25.572Z,99677.00
2023-07-31T14:54:35.192Z,99663.20
2023-07-31T14:59:44.974Z,99672.40
2023-07-31T15:04:54.649Z,99676.80
2023-07-31T15:10:05.156Z,99680.40
2023-07-31T15:15:15.335Z,99663.40
2023-07-31T15:20:25.192Z,99664.00
2023-07-31T15:25:34.816Z,99654.60
2023-07-31T15:30:45.393Z,99652.80
2023-07-31T15:35:56.947Z,99659.40
2023-07-31T15:41:07.136Z,99645.00
2023-07-31T15:46:18.031Z,99635.20
2023-07-31T15:51:28.621Z,99641.80
2023-07-31T15:56:38.773Z,99637.60
2023-07-31T16:01:49.060Z,99644.00
2023-07-31T16:06:59.303Z,99638.60
2023-07-31T16:12:11.497Z,99639.20
2023-07-31T16:17:21.457Z,99634.20
2023-07-31T16:22:31.129Z,99624.40
2023-07-31T16:27:40.910Z,99618.60
2023-07-31T16:32:51.335Z,99589.20
2023-07-31T16:38:01.133Z,99586.60
2023-07-31T16:43:10.904Z,99481.80
2023-07-31T16:48:20.578Z,99630.40
2023-07-31T16:53:30.071Z,99639.60
2023-07-31T16:58:39.750Z,99638.40
2023-07-31T17:03:49.359Z,99643.80
2023-07-31T17:08:59.212Z,99637.80
2023-07-31T17:14:09.077Z,99623.80
2023-07-31T17:19:18.879Z,99626.00
2023-07-31T17:24:28.645Z,99626.80
2023-07-31T17:29:38.588Z,99471.40
2023-07-31T17:34:48.752Z,99460.60
2023-07-31T17:39:58.534Z,99486.60
2023-07-31T17:45:11.064Z,99647.20
2023-07-31T17:50:21.551Z,99502.60
2023-07-31T17:55:31.934Z,99515.40
2023-07-31T18:00:41.987Z,99537.20
2023-07-31T18:05:52.054Z,99556.60
2023-07-31T18:11:01.566Z,99622.00
2023-07-31T18:16:11.619Z,99615.40
2023-07-31T18:21:21.630Z,99612.60
2023-07-31T18:26:31.505Z,99611.20
2023-07-31T18:31:41.389Z,99611.80
2023-07-31T18:36:51.710Z,99609.20
2023-07-31T18:42:01.294Z,99610.20
2023-07-31T18:47:12.081Z,99603.00
2023-07-31T18:52:22.045Z,99615.80
2023-07-31T18:57:31.706Z,99610.40
2023-07-31T19:02:42.109Z,99619.40
2023-07-31T19:07:51.873Z,99612.40
2023-07-31T19:13:01.606Z,99613.60
2023-07-31T19:18:11.318Z,99614.80
2023-07-31T19:23:20.944Z,99606.80
2023-07-31T19:28:31.403Z,99592.80
2023-07-31T19:33:41.187Z,99578.80
2023-07-31T19:38:50.834Z,99579.40
2023-07-31T19:44:00.780Z,99574.00
2023-07-31T19:49:10.628Z,99573.40
2023-07-31T19:54:21.250Z,99568.20
2023-07-31T19:59:30.816Z,99564.40
2023-07-31T20:04:40.823Z,99560.80
2023-07-31T20:09:52.299Z,99552.80
2023-07-31T20:15:09.220Z,99538.00
2023-07-31T20:20:19.320Z,99538.40
2023-07-31T20:25:29.451Z,99524.80
2023-07-31T20:30:39.226Z,99520.40
2023-07-31T20:35:48.852Z,99507.00
2023-07-31T20:40:58.398Z,99501.20
2023-07-31T20:46:07.993Z,99501.60
2023-07-31T20:51:17.933Z,99503.60
2023-07-31T20:56:27.736Z,99500.40
2023-07-31T21:01:37.643Z,99494.00
2023-07-31T21:06:47.826Z,99492.40
2023-07-31T21:11:57.575Z,99486.20
2023-07-31T21:17:08.720Z,99481.20
2023-07-31T21:22:18.374Z,99481.00
2023-07-31T21:27:28.219Z,99472.60
2023-07-31T21:32:37.809Z,99460.00
2023-07-31T21:37:49.404Z,99460.80
2023-07-31T21:42:58.988Z,99453.40
2023-07-31T21:48:09.594Z,99451.20
2023-07-31T21:53:19.249Z,99450.60
2023-07-31T21:58:29.157Z,99443.60
2023-07-31T22:03:39.710Z,99443.80
2023-07-31T22:08:49.701Z,99444.40
2023-07-31T22:13:59.534Z,99437.20
2023-07-31T22:19:09.192Z,99428.00
2023-07-31T22:24:18.770Z,99427.20
2023-07-31T22:29:28.657Z,99421.20
2023-07-31T22:34:38.518Z,99416.60
2023-07-31T22:39:48.130Z,99410.80
2023-07-31T22:44:57.765Z,99406.40
2023-07-31T22:50:09.164Z,99398.40
2023-07-31T22:55:19.204Z,99400.00
2023-07-31T23:00:29.349Z,99390.80
2023-07-31T23:05:39.348Z,99386.40
2023-07-31T23:10:53.188Z,99377.80
2023-07-31T23:16:02.836Z,99369.40
2023-07-31T23:21:13.608Z,99367.40
2023-07-31T23:26:23.458Z,99362.00
2023-07-31T23:31:35.458Z,99348.40
2023-07-31T23:36:47.403Z,99349.60
2023-07-31T23:41:57.546Z,99346.60
2023-07-31T23:47:09.806Z,99347.60
2023-07-31T23:52:20.054Z,99339.40
2023-07-31T23:57:31.866Z,99339.00
